createdAt,value
2018-05-29T00:02:11.253Z,99.90
2018-05-29T00:04:37.537Z,99.90
2018-05-29T00:07:05.329Z,99.90
2018-05-29T00:09:32.349Z,99.90
2018-05-29T00:11:59.398Z,99.90
2018-05-29T00:14:26.409Z,99.90
2018-05-29T00:16:52.737Z,99.90
2018-05-29T00:19:19.009Z,99.90
2018-05-29T00:21:46.045Z,99.90
2018-05-29T00:24:12.378Z,99.90
2018-05-29T00:26:38.676Z,99.90
2018-05-29T00:29:05.005Z,99.90
2018-05-29T00:31:31.317Z,99.90
2018-05-29T00:33:57.592Z,99.90
2018-05-29T00:36:23.914Z,99.90
2018-05-29T00:38:50.185Z,99.90
2018-05-29T00:41:17.582Z,99.90
2018-05-29T00:43:43.861Z,99.90
2018-05-29T00:46:10.897Z,99.90
2018-05-29T00:48:37.927Z,99.90
2018-05-29T00:51:05.717Z,99.90
2018-05-29T00:53:32.744Z,99.90
2018-05-29T00:55:59.053Z,99.90
2018-05-29T00:58:25.336Z,99.90
2018-05-29T01:00:52.389Z,99.90
2018-05-29T01:03:19.419Z,99.90
2018-05-29T01:05:45.712Z,99.90
2018-05-29T01:08:12.102Z,99.90
2018-05-29T01:10:38.376Z,99.90
2018-05-29T01:13:04.689Z,99.90
2018-05-29T01:15:30.972Z,99.90
2018-05-29T01:17:58.010Z,99.90
2018-05-29T01:20:25.801Z,99.90
2018-05-29T01:22:52.853Z,99.90
2018-05-29T01:25:19.178Z,99.90
2018-05-29T01:27:46.255Z,99.90
2018-05-29T01:30:12.541Z,99.90
2018-05-29T01:32:39.599Z,99.90
2018-05-29T01:35:05.905Z,99.90
2018-05-29T01:37:32.209Z,99.90
2018-05-29T01:39:58.487Z,99.90
2018-05-29T01:42:25.521Z,99.90
2018-05-29T01:44:53.276Z,99.90
2018-05-29T01:47:20.572Z,99.90
2018-05-29T01:49:46.858Z,99.90
2018-05-29T01:52:13.194Z,99.90
2018-05-29T01:54:39.485Z,99.90
2018-05-29T01:57:05.773Z,99.90
2018-05-29T01:59:32.788Z,99.90
2018-05-29T02:01:59.093Z,99.90
2018-05-29T02:04:25.527Z,99.90
2018-05-29T02:06:52.553Z,99.90
2018-05-29T02:09:19.054Z,99.90
2018-05-29T02:11:46.093Z,99.90
2018-05-29T02:14:12.393Z,99.90
2018-05-29T02:16:38.724Z,99.90
2018-05-29T02:19:05.058Z,99.90
2018-05-29T02:21:31.416Z,99.90
2018-05-29T02:23:59.282Z,99.90
2018-05-29T02:26:26.382Z,99.90
2018-05-29T02:28:52.705Z,99.90
2018-05-29T02:31:19.018Z,99.90
2018-05-29T02:33:46.119Z,99.90
2018-05-29T02:36:12.499Z,99.90
2018-05-29T02:38:38.813Z,99.90
2018-05-29T02:41:05.157Z,99.90
2018-05-29T02:43:33.233Z,99.90
2018-05-29T02:46:00.332Z,99.90
2018-05-29T02:48:26.690Z,99.90
2018-05-29T02:50:53.025Z,99.90
2018-05-29T02:53:20.224Z,99.90
2018-05-29T02:55:46.561Z,99.90
2018-05-29T02:58:12.878Z,99.90
2018-05-29T03:00:39.218Z,99.90
2018-05-29T03:03:05.565Z,99.90
2018-05-29T03:05:31.873Z,99.90
2018-05-29T03:07:58.249Z,99.90
2018-05-29T03:10:24.614Z,99.90
2018-05-29T03:12:50.957Z,99.90
2018-05-29T03:15:17.260Z,99.90
2018-05-29T03:17:44.328Z,99.90
2018-05-29T03:20:10.641Z,99.90
2018-05-29T03:22:37.819Z,99.90
2018-05-29T03:25:04.154Z,99.90
2018-05-29T03:27:30.469Z,99.90
2018-05-29T03:29:56.809Z,99.90
2018-05-29T03:32:23.125Z,99.90
2018-05-29T03:34:50.289Z,99.90
2018-05-29T03:37:16.696Z,99.90
2018-05-29T03:39:43.861Z,99.90
2018-05-29T03:42:10.313Z,99.90
2018-05-29T03:44:36.688Z,99.90
2018-05-29T03:47:03.013Z,99.90
2018-05-29T03:49:29.336Z,99.90
2018-05-29T03:51:55.698Z,99.90
2018-05-29T03:54:22.837Z,99.90
2018-05-29T03:56:49.166Z,99.90
2018-05-29T03:59:15.466Z,99.90
2018-05-29T04:01:41.793Z,99.90
2018-05-29T04:04:08.145Z,99.90
2018-05-29T04:06:34.497Z,99.90
2018-05-29T04:09:00.789Z,99.90
2018-05-29T04:11:31.394Z,99.90
2018-05-29T04:13:57.708Z,99.90
2018-05-29T04:16:24.762Z,99.90
2018-05-29T04:18:51.098Z,99.90
2018-05-29T04:21:17.429Z,99.90
2018-05-29T04:23:43.788Z,99.90
2018-05-29T04:26:10.102Z,99.90
2018-05-29T04:28:36.424Z,99.90
2018-05-29T04:31:02.798Z,99.90
2018-05-29T04:33:29.171Z,99.90
2018-05-29T04:35:56.185Z,99.90
2018-05-29T04:38:22.529Z,99.90
2018-05-29T04:40:48.805Z,99.90
2018-05-29T04:43:15.089Z,99.90
2018-05-29T04:45:41.401Z,99.90
2018-05-29T04:48:08.681Z,99.90
2018-05-29T04:50:34.949Z,99.90
2018-05-29T04:53:01.249Z,99.90
2018-05-29T04:55:28.269Z,99.90
2018-05-29T04:57:54.547Z,99.90
2018-05-29T05:00:20.860Z,99.90
2018-05-29T05:02:47.894Z,99.90
2018-05-29T05:05:14.900Z,99.90
2018-05-29T05:07:41.187Z,99.90
2018-05-29T05:10:08.208Z,99.90
2018-05-29T05:12:35.540Z,99.90
2018-05-29T05:15:01.821Z,99.90
2018-05-29T05:17:28.854Z,99.90
2018-05-29T05:19:56.897Z,99.90
2018-05-29T05:22:23.202Z,99.90
2018-05-29T05:24:49.483Z,99.90
2018-05-29T05:27:17.537Z,99.90
2018-05-29T05:29:43.840Z,99.90
2018-05-29T05:32:10.178Z,99.90
2018-05-29T05:34:37.477Z,99.90
2018-05-29T05:37:04.512Z,99.90
2018-05-29T05:39:32.565Z,99.90
2018-05-29T05:41:58.864Z,99.90
2018-05-29T05:44:26.205Z,99.90
2018-05-29T05:46:52.501Z,99.90
2018-05-29T05:49:18.775Z,99.90
2018-05-29T05:51:45.082Z,99.90
2018-05-29T05:54:12.104Z,99.90
2018-05-29T05:56:39.140Z,99.90
2018-05-29T05:59:05.436Z,99.90
2018-05-29T06:01:31.705Z,99.90
2018-05-29T06:03:59.781Z,99.90
2018-05-29T06:06:26.043Z,99.90
2018-05-29T06:08:52.365Z,99.90
2018-05-29T06:11:19.401Z,99.90
2018-05-29T06:13:46.433Z,99.90
2018-05-29T06:16:13.442Z,99.90
2018-05-29T06:18:47.237Z,99.90
2018-05-29T06:21:13.505Z,99.90
2018-05-29T06:23:39.810Z,99.90
2018-05-29T06:26:06.091Z,99.90
2018-05-29T06:28:33.121Z,99.90
2018-05-29T06:31:00.168Z,99.90
2018-05-29T06:33:27.909Z,99.90
2018-05-29T06:35:54.185Z,99.90
2018-05-29T06:38:21.205Z,99.90
2018-05-29T06:40:48.230Z,99.90
2018-05-29T06:43:14.525Z,99.90
2018-05-29T06:45:40.788Z,99.90
2018-05-29T06:48:07.098Z,99.90
2018-05-29T06:50:33.389Z,99.90
2018-05-29T06:52:59.689Z,99.90
2018-05-29T06:55:26.005Z,99.90
2018-05-29T06:57:52.303Z,99.90
2018-05-29T07:00:18.590Z,99.90
2018-05-29T07:02:44.878Z,99.90
2018-05-29T07:05:11.137Z,99.90
2018-05-29T07:07:37.452Z,99.90
2018-05-29T07:10:03.734Z,99.90
2018-05-29T07:12:30.818Z,99.90
2018-05-29T07:14:57.093Z,99.90
2018-05-29T07:17:23.361Z,99.90
2018-05-29T07:19:49.692Z,99.90
2018-05-29T07:22:16.693Z,99.90
2018-05-29T07:24:43.031Z,99.90
2018-05-29T07:27:09.276Z,99.90
2018-05-29T07:29:35.601Z,99.90
2018-05-29T07:32:02.909Z,99.90
2018-05-29T07:34:29.184Z,99.90
2018-05-29T07:36:55.468Z,99.90
2018-05-29T07:39:21.756Z,99.90
2018-05-29T07:41:48.774Z,99.90
2018-05-29T07:44:15.076Z,99.90
2018-05-29T07:46:41.361Z,99.90
2018-05-29T07:49:08.424Z,99.90
2018-05-29T07:51:35.569Z,99.90
2018-05-29T07:54:01.870Z,99.90
2018-05-29T07:56:28.145Z,99.90
2018-05-29T07:58:54.501Z,99.90
2018-05-29T08:01:20.768Z,99.90
2018-05-29T08:03:47.037Z,99.90
2018-05-29T08:06:13.337Z,99.90
2018-05-29T08:08:40.357Z,99.90
2018-05-29T08:11:06.701Z,99.90
2018-05-29T08:13:33.012Z,99.90
2018-05-29T08:15:59.288Z,99.90
2018-05-29T08:18:26.361Z,99.90
2018-05-29T08:20:52.629Z,99.90
2018-05-29T08:23:18.889Z,99.90
2018-05-29T08:25:45.967Z,99.90
2018-05-29T08:28:12.260Z,99.90
2018-05-29T08:30:39.273Z,99.90
2018-05-29T08:33:05.566Z,99.90
2018-05-29T08:35:31.825Z,99.90
2018-05-29T08:37:58.109Z,99.90
2018-05-29T08:40:25.146Z,99.90
2018-05-29T08:42:51.433Z,99.90
2018-05-29T08:45:17.704Z,99.90
2018-05-29T08:47:44.761Z,99.90
2018-05-29T08:50:11.038Z,99.90
2018-05-29T08:52:37.314Z,99.90
2018-05-29T08:55:04.378Z,99.90
2018-05-29T08:57:30.650Z,99.90
2018-05-29T08:59:56.940Z,99.90
2018-05-29T09:02:23.217Z,99.90
2018-05-29T09:04:49.530Z,99.90
2018-05-29T09:07:15.837Z,99.90
2018-05-29T09:09:42.133Z,99.90
2018-05-29T09:12:09.143Z,99.90
2018-05-29T09:14:36.185Z,99.90
2018-05-29T09:17:02.508Z,99.90
2018-05-29T09:19:28.783Z,99.90
2018-05-29T09:21:55.825Z,99.90
2018-05-29T09:24:22.117Z,99.90
2018-05-29T09:26:48.405Z,99.90
2018-05-29T09:29:15.421Z,99.90
2018-05-29T09:31:42.498Z,99.90
2018-05-29T09:34:10.522Z,99.90
2018-05-29T09:36:36.801Z,99.90
2018-05-29T09:39:04.841Z,99.90
2018-05-29T09:41:31.134Z,99.90
2018-05-29T09:43:57.441Z,99.90
2018-05-29T09:46:23.717Z,99.90
2018-05-29T09:48:50.745Z,99.90
2018-05-29T09:51:17.053Z,99.90
2018-05-29T09:53:43.333Z,99.90
2018-05-29T09:56:09.658Z,99.90
2018-05-29T09:58:35.942Z,99.90
2018-05-29T10:01:02.249Z,99.90
2018-05-29T10:03:29.301Z,99.90
2018-05-29T10:05:56.312Z,99.90
2018-05-29T10:08:23.348Z,99.90
2018-05-29T10:10:50.657Z,99.90
2018-05-29T10:13:17.721Z,99.90
2018-05-29T10:15:44.029Z,99.90
2018-05-29T10:18:11.064Z,99.90
2018-05-29T10:20:37.338Z,99.90
2018-05-29T10:23:03.636Z,99.90
2018-05-29T10:25:30.652Z,99.90
2018-05-29T10:27:56.981Z,99.90
2018-05-29T10:30:23.306Z,99.90
2018-05-29T10:32:49.611Z,99.90
2018-05-29T10:35:15.876Z,99.90
2018-05-29T10:37:42.166Z,99.90
2018-05-29T10:40:08.457Z,99.90
2018-05-29T10:42:35.500Z,99.90
2018-05-29T10:45:01.813Z,99.90
2018-05-29T10:47:28.112Z,99.90
2018-05-29T10:49:55.433Z,99.90
2018-05-29T10:52:22.477Z,99.90
2018-05-29T10:54:49.501Z,99.90
2018-05-29T10:57:15.828Z,99.90
2018-05-29T10:59:42.129Z,99.90
2018-05-29T11:02:09.006Z,99.90
2018-05-29T11:04:35.317Z,99.90
2018-05-29T11:07:01.638Z,99.90
2018-05-29T11:09:27.935Z,99.90
2018-05-29T11:11:54.268Z,99.90
2018-05-29T11:14:20.595Z,99.90
2018-05-29T11:16:46.893Z,99.90
2018-05-29T11:19:13.198Z,99.90
2018-05-29T11:21:39.524Z,99.90
2018-05-29T11:24:05.810Z,99.90
2018-05-29T11:26:32.871Z,99.90
2018-05-29T11:28:59.148Z,99.90
2018-05-29T11:31:25.445Z,99.90
2018-05-29T11:33:51.722Z,99.90
2018-05-29T11:36:18.016Z,99.90
2018-05-29T11:38:44.306Z,99.90
2018-05-29T11:41:10.601Z,99.90
2018-05-29T11:43:36.890Z,99.90
2018-05-29T11:46:03.209Z,99.90
2018-05-29T11:48:29.505Z,99.90
2018-05-29T11:50:56.553Z,99.90
2018-05-29T11:53:22.827Z,99.80
2018-05-29T11:55:49.116Z,99.50
2018-05-29T11:58:16.141Z,99.90
2018-05-29T12:00:42.502Z,99.90
2018-05-29T12:03:09.541Z,99.90
2018-05-29T12:05:36.654Z,99.90
2018-05-29T12:08:02.982Z,99.90
2018-05-29T12:10:29.276Z,99.90
2018-05-29T12:12:55.548Z,99.90
2018-05-29T12:15:21.848Z,99.90
2018-05-29T12:17:48.125Z,99.90
2018-05-29T12:20:14.422Z,99.90
2018-05-29T12:22:40.728Z,99.90
2018-05-29T12:25:07.044Z,99.90
2018-05-29T12:27:33.352Z,99.90
2018-05-29T12:29:59.608Z,99.20
2018-05-29T12:32:26.693Z,93.30
2018-05-29T12:34:52.996Z,93.30
2018-05-29T12:37:19.274Z,97.30
2018-05-29T12:39:45.566Z,99.40
2018-05-29T12:42:11.889Z,98.60
2018-05-29T12:44:38.175Z,99.90
2018-05-29T12:47:05.243Z,99.30
2018-05-29T12:49:32.257Z,99.90
2018-05-29T12:51:58.629Z,99.90
2018-05-29T12:54:25.673Z,99.50
2018-05-29T12:56:52.733Z,99.50
2018-05-29T12:59:19.753Z,98.50
2018-05-29T13:01:46.061Z,98.50
2018-05-29T13:04:13.074Z,99.20
2018-05-29T13:06:39.373Z,99.00
2018-05-29T13:09:06.398Z,97.10
2018-05-29T13:11:32.710Z,97.00
2018-05-29T13:13:59.004Z,97.50
2018-05-29T13:16:25.302Z,96.50
2018-05-29T13:18:51.610Z,94.70
2018-05-29T13:21:17.903Z,95.70
2018-05-29T13:23:44.181Z,96.80
2018-05-29T13:26:10.460Z,93.40
2018-05-29T13:28:36.780Z,95.70
2018-05-29T13:31:03.073Z,95.80
2018-05-29T13:33:29.398Z,92.50
2018-05-29T13:35:55.677Z,93.00
2018-05-29T13:38:21.992Z,90.20
2018-05-29T13:40:49.013Z,87.60
2018-05-29T13:43:15.321Z,87.40
2018-05-29T13:45:41.620Z,87.40
2018-05-29T13:48:07.896Z,88.00
2018-05-29T13:50:34.209Z,79.00
2018-05-29T13:53:00.529Z,73.70
2018-05-29T13:55:26.832Z,74.10
2018-05-29T13:57:53.124Z,69.20
2018-05-29T14:00:19.453Z,71.80
2018-05-29T14:02:45.741Z,72.40
2018-05-29T14:05:12.057Z,69.30
2018-05-29T14:07:38.349Z,67.40
2018-05-29T14:10:04.658Z,65.10
2018-05-29T14:12:30.970Z,68.30
2018-05-29T14:14:57.307Z,67.90
2018-05-29T14:17:23.572Z,64.40
2018-05-29T14:19:50.632Z,68.30
2018-05-29T14:22:17.645Z,68.20
2018-05-29T14:24:43.933Z,68.20
2018-05-29T14:27:10.228Z,65.60
2018-05-29T14:29:36.512Z,61.80
2018-05-29T14:32:02.797Z,64.00
2018-05-29T14:34:30.309Z,62.60
2018-05-29T14:36:56.604Z,62.50
2018-05-29T14:39:22.937Z,64.00
2018-05-29T14:41:49.222Z,60.00
2018-05-29T14:44:16.342Z,62.40
2018-05-29T14:46:42.670Z,62.00
2018-05-29T14:49:08.945Z,58.80
2018-05-29T14:51:35.245Z,57.00
2018-05-29T14:54:01.580Z,52.70
2018-05-29T14:56:27.876Z,51.90
2018-05-29T14:58:54.202Z,53.00
2018-05-29T15:01:20.533Z,53.80
2018-05-29T15:03:47.820Z,54.80
2018-05-29T15:06:14.157Z,52.70
2018-05-29T15:08:40.434Z,53.90
2018-05-29T15:11:06.714Z,51.70
2018-05-29T15:13:33.032Z,49.40
2018-05-29T15:15:59.320Z,48.70
2018-05-29T15:18:26.584Z,47.70
2018-05-29T15:20:52.905Z,47.70
2018-05-29T15:23:19.208Z,50.30
2018-05-29T15:25:46.280Z,49.10
2018-05-29T15:28:13.361Z,47.10
2018-05-29T15:30:39.666Z,47.00
2018-05-29T15:33:06.734Z,49.70
2018-05-29T15:35:33.057Z,49.60
2018-05-29T15:37:59.348Z,49.20
2018-05-29T15:40:25.650Z,47.80
2018-05-29T15:42:51.958Z,47.70
2018-05-29T15:45:18.261Z,50.00
2018-05-29T15:47:45.300Z,52.70
2018-05-29T15:50:12.333Z,52.90
2018-05-29T15:52:38.659Z,52.80
2018-05-29T15:55:05.982Z,53.60
2018-05-29T15:57:32.309Z,53.40
2018-05-29T15:59:58.621Z,52.30
2018-05-29T16:02:25.644Z,51.90
2018-05-29T16:04:52.662Z,52.60
2018-05-29T16:07:18.973Z,52.50
2018-05-29T16:09:45.274Z,52.90
2018-05-29T16:12:11.597Z,53.40
2018-05-29T16:14:37.877Z,54.00
2018-05-29T16:17:04.200Z,54.20
2018-05-29T16:19:30.512Z,54.90
2018-05-29T16:21:56.806Z,53.80
2018-05-29T16:24:23.854Z,54.50
2018-05-29T16:26:51.206Z,54.40
2018-05-29T16:29:17.481Z,56.80
2018-05-29T16:31:43.749Z,56.10
2018-05-29T16:34:10.813Z,60.00
2018-05-29T16:36:38.903Z,61.10
2018-05-29T16:39:05.247Z,61.10
2018-05-29T16:41:31.521Z,63.80
2018-05-29T16:43:57.793Z,65.60
2018-05-29T16:46:24.124Z,67.40
2018-05-29T16:48:51.213Z,69.80
2018-05-29T16:51:17.517Z,69.80
2018-05-29T16:53:43.791Z,71.10
2018-05-29T16:56:10.113Z,70.70
2018-05-29T16:58:36.413Z,71.90
2018-05-29T17:01:02.765Z,73.30
2018-05-29T17:03:29.108Z,75.60
2018-05-29T17:05:55.523Z,75.90
2018-05-29T17:08:21.804Z,77.30
2018-05-29T17:10:48.841Z,78.70
2018-05-29T17:13:15.104Z,78.60
2018-05-29T17:15:41.368Z,80.30
2018-05-29T17:18:07.725Z,80.00
2018-05-29T17:20:34.066Z,80.60
2018-05-29T17:23:00.345Z,80.50
2018-05-29T17:25:26.660Z,81.80
2018-05-29T17:27:52.932Z,81.60
2018-05-29T17:30:19.245Z,82.10
2018-05-29T17:32:46.561Z,82.60
2018-05-29T17:35:12.845Z,83.40
2018-05-29T17:37:39.149Z,85.10
2018-05-29T17:40:05.429Z,86.40
2018-05-29T17:42:32.470Z,88.60
2018-05-29T17:44:58.811Z,88.70
2018-05-29T17:47:25.072Z,89.90
2018-05-29T17:49:51.377Z,90.50
2018-05-29T17:52:18.429Z,91.30
2018-05-29T17:54:45.452Z,91.30
2018-05-29T17:57:11.762Z,91.20
2018-05-29T17:59:38.069Z,91.40
2018-05-29T18:02:05.413Z,92.00
2018-05-29T18:04:31.773Z,92.20
2018-05-29T18:06:58.069Z,92.00
2018-05-29T18:09:24.363Z,92.50
2018-05-29T18:11:50.669Z,92.50
2018-05-29T18:14:16.964Z,92.60
2018-05-29T18:16:43.248Z,93.30
2018-05-29T18:19:09.582Z,92.90
2018-05-29T18:21:36.882Z,93.80
2018-05-29T18:24:03.176Z,94.90
2018-05-29T18:26:29.485Z,95.80
2018-05-29T18:28:55.805Z,96.70
2018-05-29T18:31:22.072Z,97.80
2018-05-29T18:33:49.105Z,99.70
2018-05-29T18:36:15.413Z,99.70
2018-05-29T18:38:41.720Z,99.90
2018-05-29T18:41:08.037Z,99.90
2018-05-29T18:43:34.394Z,99.90
2018-05-29T18:46:00.681Z,99.90
2018-05-29T18:48:27.709Z,99.90
2018-05-29T18:50:54.020Z,99.90
2018-05-29T18:53:20.328Z,99.90
2018-05-29T18:55:47.700Z,99.90
2018-05-29T18:58:13.993Z,99.90
2018-05-29T19:00:40.305Z,99.90
2018-05-29T19:03:07.366Z,99.90
2018-05-29T19:05:33.636Z,99.90
2018-05-29T19:08:00.981Z,99.90
2018-05-29T19:10:27.308Z,99.90
2018-05-29T19:12:53.627Z,99.90
2018-05-29T19:15:19.994Z,99.90
2018-05-29T19:17:46.299Z,99.90
2018-05-29T19:20:12.602Z,99.90
2018-05-29T19:22:39.625Z,99.90
2018-05-29T19:25:05.933Z,99.90
2018-05-29T19:27:32.218Z,99.90
2018-05-29T19:29:58.526Z,99.90
2018-05-29T19:32:25.575Z,99.90
2018-05-29T19:34:52.625Z,99.90
2018-05-29T19:37:19.651Z,99.90
2018-05-29T19:39:46.700Z,99.90
2018-05-29T19:42:13.730Z,99.90
2018-05-29T19:44:40.045Z,99.90
2018-05-29T19:47:07.101Z,99.90
2018-05-29T19:49:33.446Z,99.90
2018-05-29T19:51:59.747Z,99.90
2018-05-29T19:54:26.109Z,99.90
2018-05-29T19:56:52.533Z,99.90
2018-05-29T19:59:18.840Z,99.90
2018-05-29T20:01:45.149Z,99.90
2018-05-29T20:04:11.565Z,99.90
2018-05-29T20:06:37.933Z,99.90
2018-05-29T20:09:04.260Z,99.90
2018-05-29T20:11:30.572Z,99.90
2018-05-29T20:13:56.974Z,99.90
2018-05-29T20:16:24.148Z,99.90
2018-05-29T20:18:50.525Z,99.90
2018-05-29T20:21:16.983Z,99.90
2018-05-29T20:23:44.049Z,99.90
2018-05-29T20:26:10.401Z,99.90
2018-05-29T20:28:36.687Z,99.90
2018-05-29T20:31:03.013Z,99.90
2018-05-29T20:33:29.335Z,99.90
2018-05-29T20:35:55.664Z,99.90
2018-05-29T20:38:21.952Z,99.90
2018-05-29T20:40:48.321Z,99.90
2018-05-29T20:43:15.451Z,99.90
2018-05-29T20:45:41.752Z,99.90
2018-05-29T20:48:08.161Z,99.90
2018-05-29T20:50:34.450Z,99.90
2018-05-29T20:53:00.892Z,99.90
2018-05-29T20:55:27.314Z,99.90
2018-05-29T20:57:53.578Z,99.90
2018-05-29T21:00:19.879Z,99.90
2018-05-29T21:02:46.313Z,99.90
2018-05-29T21:05:12.659Z,99.90
2018-05-29T21:07:39.081Z,99.90
2018-05-29T21:10:06.443Z,99.90
2018-05-29T21:12:32.849Z,99.90
2018-05-29T21:14:59.119Z,99.90
2018-05-29T21:17:25.496Z,99.90
2018-05-29T21:19:51.815Z,99.90
2018-05-29T21:22:18.888Z,99.90
2018-05-29T21:24:46.029Z,99.90
2018-05-29T21:27:12.388Z,99.90
2018-05-29T21:29:38.684Z,99.90
2018-05-29T21:32:05.001Z,99.90
2018-05-29T21:34:32.010Z,99.90
2018-05-29T21:36:58.421Z,99.90
2018-05-29T21:39:24.752Z,99.90
2018-05-29T21:41:51.028Z,99.90
2018-05-29T21:44:19.072Z,99.90
2018-05-29T21:46:45.398Z,99.90
2018-05-29T21:49:12.689Z,99.90
2018-05-29T21:51:39.729Z,99.90
2018-05-29T21:54:06.758Z,99.90
2018-05-29T21:56:34.081Z,99.90
2018-05-29T21:59:00.373Z,99.90
2018-05-29T22:01:27.409Z,99.90
2018-05-29T22:04:00.580Z,99.90
2018-05-29T22:06:26.884Z,99.90
2018-05-29T22:08:53.214Z,99.90
2018-05-29T22:11:19.572Z,99.90
2018-05-29T22:13:45.849Z,99.90
2018-05-29T22:16:12.129Z,99.90
2018-05-29T22:18:38.481Z,99.90
2018-05-29T22:21:05.505Z,99.90
2018-05-29T22:23:31.801Z,99.90
2018-05-29T22:25:58.138Z,99.90
2018-05-29T22:28:24.446Z,99.90
2018-05-29T22:30:50.733Z,99.90
2018-05-29T22:33:17.028Z,99.90
2018-05-29T22:35:43.328Z,99.90
2018-05-29T22:38:09.673Z,99.90
2018-05-29T22:40:35.964Z,99.90
2018-05-29T22:43:02.275Z,99.90
2018-05-29T22:45:28.590Z,99.90
2018-05-29T22:47:55.409Z,99.90
2018-05-29T22:50:21.737Z,99.90
2018-05-29T22:52:48.008Z,99.90
2018-05-29T22:55:15.052Z,99.90
2018-05-29T22:57:41.389Z,99.90
2018-05-29T23:00:07.742Z,99.90
2018-05-29T23:02:34.773Z,99.90
2018-05-29T23:05:01.076Z,99.90
2018-05-29T23:07:27.358Z,99.90
2018-05-29T23:09:54.361Z,99.90
2018-05-29T23:12:20.724Z,99.90
2018-05-29T23:14:47.804Z,99.90
2018-05-29T23:17:14.129Z,99.90
2018-05-29T23:19:40.421Z,99.90
2018-05-29T23:22:07.489Z,99.90
2018-05-29T23:24:34.508Z,99.90
2018-05-29T23:27:00.801Z,99.90
2018-05-29T23:29:27.126Z,99.90
2018-05-29T23:31:53.426Z,99.90
2018-05-29T23:34:20.492Z,99.90
2018-05-29T23:36:46.821Z,99.90
2018-05-29T23:39:13.108Z,99.90
2018-05-29T23:41:39.413Z,99.90
2018-05-29T23:44:05.717Z,99.90
2018-05-29T23:46:31.990Z,99.90
2018-05-29T23:48:58.264Z,99.90
2018-05-29T23:51:25.333Z,99.90
2018-05-29T23:53:51.636Z,99.90
2018-05-29T23:56:19.721Z,99.90
2018-05-29T23:58:46.039Z,99.90
